sensor_id;sensor_type;location;lat;lon;timestamp;pressure;altitude;pressure_sealevel;temperature;humidity
80410;BME280;69746;45.596;10.154;2023-06-04T00:00:06;99490.44;;;24.83;54.79
80410;BME280;69746;45.596;10.154;2023-06-04T00:02:35;99484.88;;;24.83;54.84
80410;BME280;69746;45.596;10.154;2023-06-04T00:05:01;99484.88;;;24.83;54.76
80410;BME280;69746;45.596;10.154;2023-06-04T00:07:27;99478.47;;;24.82;54.87
80410;BME280;69746;45.596;10.154;2023-06-04T00:09:53;99484.88;;;24.83;54.84
80410;BME280;69746;45.596;10.154;2023-06-04T00:12:19;99480.44;;;24.82;54.74
80410;BME280;69746;45.596;10.154;2023-06-04T00:14:45;99478.47;;;24.82;54.79
80410;BME280;69746;45.596;10.154;2023-06-04T00:17:11;99480.44;;;24.82;54.89
80410;BME280;69746;45.596;10.154;2023-06-04T00:19:39;99481.28;;;24.82;54.99
80410;BME280;69746;45.596;10.154;2023-06-04T00:22:06;99484.06;;;24.82;54.66
80410;BME280;69746;45.596;10.154;2023-06-04T00:24:32;99481.28;;;24.82;54.76
80410;BME280;69746;45.596;10.154;2023-06-04T00:26:58;99481.28;;;24.82;54.76
80410;BME280;69746;45.596;10.154;2023-06-04T00:29:24;99485.69;;;24.83;54.72
80410;BME280;69746;45.596;10.154;2023-06-04T00:31:49;99488.47;;;24.83;54.74
80410;BME280;69746;45.596;10.154;2023-06-04T00:34:18;99484.75;;;24.79;54.89
80410;BME280;69746;45.596;10.154;2023-06-04T00:36:44;99492.44;;;24.82;54.88
80410;BME280;69746;45.596;10.154;2023-06-04T00:39:10;99486.03;;;24.82;54.70
80410;BME280;69746;45.596;10.154;2023-06-04T00:41:39;99491.63;;;24.82;54.70
80410;BME280;69746;45.596;10.154;2023-06-04T00:44:04;99478.47;;;24.82;54.97
80410;BME280;69746;45.596;10.154;2023-06-04T00:46:34;99483.25;;;24.82;54.83
80410;BME280;69746;45.596;10.154;2023-06-04T00:49:01;99484.88;;;24.83;54.85
80410;BME280;69746;45.596;10.154;2023-06-04T00:51:30;99475.69;;;24.82;54.80
80410;BME280;69746;45.596;10.154;2023-06-04T00:53:58;99478.47;;;24.82;54.83
80410;BME280;69746;45.596;10.154;2023-06-04T00:56:24;99481.28;;;24.82;54.68
80410;BME280;69746;45.596;10.154;2023-06-04T00:58:50;99480.44;;;24.82;54.73
80410;BME280;69746;45.596;10.154;2023-06-04T01:01:42;99482.09;;;24.83;54.78
80410;BME280;69746;45.596;10.154;2023-06-04T01:04:16;99488.00;;;24.81;54.91
80410;BME280;69746;45.596;10.154;2023-06-04T01:06:47;99492.44;;;24.82;54.95
80410;BME280;69746;45.596;10.154;2023-06-04T01:09:15;99489.63;;;24.82;54.78
80410;BME280;69746;45.596;10.154;2023-06-04T01:11:41;99489.97;;;24.81;54.76
80410;BME280;69746;45.596;10.154;2023-06-04T01:14:09;99496.38;;;24.81;54.89
80410;BME280;69746;45.596;10.154;2023-06-04T01:16:39;99504.75;;;24.81;54.81
80410;BME280;69746;45.596;10.154;2023-06-04T01:22:14;99505.56;;;24.82;54.84
80410;BME280;69746;45.596;10.154;2023-06-04T01:24:52;99507.53;;;24.81;54.93
80410;BME280;69746;45.596;10.154;2023-06-04T01:27:22;99510.66;;;24.80;54.97
80410;BME280;69746;45.596;10.154;2023-06-04T01:29:51;99507.53;;;24.81;54.71
80410;BME280;69746;45.596;10.154;2023-06-04T01:32:18;99506.72;;;24.81;54.98
80410;BME280;69746;45.596;10.154;2023-06-04T01:34:46;99515.91;;;24.81;54.72
80410;BME280;69746;45.596;10.154;2023-06-04T01:37:14;99512.63;;;24.79;54.78
80410;BME280;69746;45.596;10.154;2023-06-04T01:39:44;99517.06;;;24.80;54.76
80410;BME280;69746;45.596;10.154;2023-06-04T01:42:10;99513.13;;;24.81;54.87
80410;BME280;69746;45.596;10.154;2023-06-04T01:44:36;99517.88;;;24.81;54.75
80410;BME280;69746;45.596;10.154;2023-06-04T01:47:02;99504.13;;;24.76;54.78
80410;BME280;69746;45.596;10.154;2023-06-04T01:49:31;99513.13;;;24.81;54.73
80410;BME280;69746;45.596;10.154;2023-06-04T01:51:57;99521.47;;;24.81;54.84
80410;BME280;69746;45.596;10.154;2023-06-04T01:54:23;99512.63;;;24.79;54.76
80410;BME280;69746;45.596;10.154;2023-06-04T01:56:48;99515.09;;;24.81;54.71
80410;BME280;69746;45.596;10.154;2023-06-04T01:59:17;99517.88;;;24.81;54.85
80410;BME280;69746;45.596;10.154;2023-06-04T02:01:43;99515.91;;;24.81;54.64
80410;BME280;69746;45.596;10.154;2023-06-04T02:04:10;99512.28;;;24.81;54.83
80410;BME280;69746;45.596;10.154;2023-06-04T02:06:36;99522.63;;;24.80;54.79
80410;BME280;69746;45.596;10.154;2023-06-04T02:09:02;99517.88;;;24.81;54.87
80410;BME280;69746;45.596;10.154;2023-06-04T02:11:29;99512.28;;;24.81;54.76
80410;BME280;69746;45.596;10.154;2023-06-04T02:13:55;99514.28;;;24.80;54.75
80410;BME280;69746;45.596;10.154;2023-06-04T02:16:20;99519.84;;;24.80;54.82
80410;BME280;69746;45.596;10.154;2023-06-04T02:18:46;99510.66;;;24.80;54.69
80410;BME280;69746;45.596;10.154;2023-06-04T02:21:12;99504.94;;;24.76;54.86
80410;BME280;69746;45.596;10.154;2023-06-04T02:23:38;99509.50;;;24.81;54.80
80410;BME280;69746;45.596;10.154;2023-06-04T02:26:05;99511.47;;;24.80;54.83
80410;BME280;69746;45.596;10.154;2023-06-04T02:28:32;99508.69;;;24.80;54.79
80410;BME280;69746;45.596;10.154;2023-06-04T02:30:57;99512.28;;;24.81;54.76
80410;BME280;69746;45.596;10.154;2023-06-04T02:33:23;99512.28;;;24.81;54.68
80410;BME280;69746;45.596;10.154;2023-06-04T02:35:49;99511.47;;;24.80;54.87
80410;BME280;69746;45.596;10.154;2023-06-04T02:38:15;99507.53;;;24.81;54.67
80410;BME280;69746;45.596;10.154;2023-06-04T02:40:44;99510.66;;;24.80;54.71
80410;BME280;69746;45.596;10.154;2023-06-04T02:43:10;99510.66;;;24.80;54.82
80410;BME280;69746;45.596;10.154;2023-06-04T02:45:36;99507.88;;;24.80;54.76
80410;BME280;69746;45.596;10.154;2023-06-04T02:48:02;99505.91;;;24.80;54.63
80410;BME280;69746;45.596;10.154;2023-06-04T02:50:28;99509.38;;;24.77;54.84
80410;BME280;69746;45.596;10.154;2023-06-04T02:52:54;99516.25;;;24.80;54.65
80410;BME280;69746;45.596;10.154;2023-06-04T02:55:20;99509.84;;;24.79;54.56
80410;BME280;69746;45.596;10.154;2023-06-04T02:57:46;99514.28;;;24.80;54.79
80410;BME280;69746;45.596;10.154;2023-06-04T03:00:13;99502.28;;;24.80;54.91
80410;BME280;69746;45.596;10.154;2023-06-04T03:02:44;99509.84;;;24.79;54.79
80410;BME280;69746;45.596;10.154;2023-06-04T03:05:13;99504.28;;;24.79;54.58
80410;BME280;69746;45.596;10.154;2023-06-04T03:07:40;99497.88;;;24.79;54.88
80410;BME280;69746;45.596;10.154;2023-06-04T03:10:10;99493.94;;;24.80;54.81
80410;BME280;69746;45.596;10.154;2023-06-04T03:12:37;99492.28;;;24.79;55.07
80410;BME280;69746;45.596;10.154;2023-06-04T03:15:04;99500.66;;;24.79;54.70
80410;BME280;69746;45.596;10.154;2023-06-04T03:17:30;99503.44;;;24.79;54.76
80410;BME280;69746;45.596;10.154;2023-06-04T03:19:57;99500.66;;;24.79;54.77
80410;BME280;69746;45.596;10.154;2023-06-04T03:22:23;99499.84;;;24.78;54.77
80410;BME280;69746;45.596;10.154;2023-06-04T03:24:49;99508.22;;;24.78;54.77
80410;BME280;69746;45.596;10.154;2023-06-04T03:27:15;99512.63;;;24.79;54.67
80410;BME280;69746;45.596;10.154;2023-06-04T03:29:41;99512.63;;;24.79;54.76
80410;BME280;69746;45.596;10.154;2023-06-04T03:32:09;99517.41;;;24.79;54.74
80410;BME280;69746;45.596;10.154;2023-06-04T03:34:35;99524.63;;;24.80;54.78
80410;BME280;69746;45.596;10.154;2023-06-04T03:37:02;99528.56;;;24.79;54.70
80410;BME280;69746;45.596;10.154;2023-06-04T03:39:31;99530.53;;;24.78;54.59
80410;BME280;69746;45.596;10.154;2023-06-04T03:41:57;99525.78;;;24.79;54.65
80410;BME280;69746;45.596;10.154;2023-06-04T03:44:23;99536.94;;;24.79;54.64
80410;BME280;69746;45.596;10.154;2023-06-04T03:46:49;99531.34;;;24.79;54.72
80410;BME280;69746;45.596;10.154;2023-06-04T03:49:15;99548.09;;;24.79;54.86
80410;BME280;69746;45.596;10.154;2023-06-04T03:51:43;99544.47;;;24.78;54.77
80410;BME280;69746;45.596;10.154;2023-06-04T03:54:09;99541.69;;;24.78;54.70
80410;BME280;69746;45.596;10.154;2023-06-04T03:56:35;99542.50;;;24.79;54.71
80410;BME280;69746;45.596;10.154;2023-06-04T03:59:01;99548.09;;;24.79;54.63
80410;BME280;69746;45.596;10.154;2023-06-04T04:01:27;99534.47;;;24.77;54.67
80410;BME280;69746;45.596;10.154;2023-06-04T04:03:54;99543.66;;;24.78;54.76
80410;BME280;69746;45.596;10.154;2023-06-04T04:06:20;99539.72;;;24.79;54.73
80410;BME280;69746;45.596;10.154;2023-06-04T04:08:46;99554.00;;;24.77;54.86
80410;BME280;69746;45.596;10.154;2023-06-04T04:11:15;99543.66;;;24.78;54.72
80410;BME280;69746;45.596;10.154;2023-06-04T04:13:42;99543.66;;;24.78;54.83
80410;BME280;69746;45.596;10.154;2023-06-04T04:16:09;99533.31;;;24.78;54.88
80410;BME280;69746;45.596;10.154;2023-06-04T04:18:37;99544.47;;;24.78;54.84
80410;BME280;69746;45.596;10.154;2023-06-04T04:21:06;99548.09;;;24.79;54.79
80410;BME280;69746;45.596;10.154;2023-06-04T04:23:32;99546.44;;;24.78;54.86
80410;BME280;69746;45.596;10.154;2023-06-04T04:25:58;99552.03;;;24.78;54.64
80410;BME280;69746;45.596;10.154;2023-06-04T04:28:25;99558.44;;;24.78;54.85
80410;BME280;69746;45.596;10.154;2023-06-04T04:30:55;99559.25;;;24.79;54.58
80410;BME280;69746;45.596;10.154;2023-06-04T04:33:23;99555.63;;;24.78;54.67
80410;BME280;69746;45.596;10.154;2023-06-04T04:35:54;99557.63;;;24.78;54.74
80410;BME280;69746;45.596;10.154;2023-06-04T08:38:28;99637.41;;;24.61;55.12
80410;BME280;69746;45.596;10.154;2023-06-04T08:40:58;99635.94;;;24.64;55.16
80410;BME280;69746;45.596;10.154;2023-06-04T08:43:29;99635.94;;;24.64;55.13
80410;BME280;69746;45.596;10.154;2023-06-04T08:45:59;99645.59;;;24.66;55.02
80410;BME280;69746;45.596;10.154;2023-06-04T08:48:28;99644.78;;;24.66;55.08
80410;BME280;69746;45.596;10.154;2023-06-04T08:50:55;99649.53;;;24.65;55.11
80410;BME280;69746;45.596;10.154;2023-06-04T08:53:22;99646.75;;;24.65;54.99
80410;BME280;69746;45.596;10.154;2023-06-04T08:55:53;99646.41;;;24.67;55.08
80410;BME280;69746;45.596;10.154;2023-06-04T08:58:21;99652.81;;;24.67;55.04
80410;BME280;69746;45.596;10.154;2023-06-04T09:00:47;99652.00;;;24.67;54.93
80410;BME280;69746;45.596;10.154;2023-06-04T09:03:15;99642.81;;;24.66;54.92
80410;BME280;69746;45.596;10.154;2023-06-04T09:05:41;99650.84;;;24.68;55.03
80410;BME280;69746;45.596;10.154;2023-06-04T09:08:14;99648.88;;;24.68;54.96
80410;BME280;69746;45.596;10.154;2023-06-04T09:10:44;99650.84;;;24.68;54.86
80410;BME280;69746;45.596;10.154;2023-06-04T09:13:13;99649.69;;;24.69;55.05
80410;BME280;69746;45.596;10.154;2023-06-04T09:15:40;99655.28;;;24.69;54.81
80410;BME280;69746;45.596;10.154;2023-06-04T09:18:18;99658.88;;;24.69;54.89
80410;BME280;69746;45.596;10.154;2023-06-04T09:20:44;99656.09;;;24.69;55.07
80410;BME280;69746;45.596;10.154;2023-06-04T09:23:14;99651.31;;;24.70;54.86
80410;BME280;69746;45.596;10.154;2023-06-04T09:25:42;99654.13;;;24.70;55.17
80410;BME280;69746;45.596;10.154;2023-06-04T09:28:12;99658.53;;;24.71;54.90
80410;BME280;69746;45.596;10.154;2023-06-04T09:30:38;99654.13;;;24.70;55.07
80410;BME280;69746;45.596;10.154;2023-06-04T09:33:08;99656.91;;;24.70;54.85
80410;BME280;69746;45.596;10.154;2023-06-04T09:35:34;99650.50;;;24.69;54.93
80410;BME280;69746;45.596;10.154;2023-06-04T09:38:00;99649.34;;;24.70;54.81
80410;BME280;69746;45.596;10.154;2023-06-04T09:40:36;99651.31;;;24.70;54.80
80410;BME280;69746;45.596;10.154;2023-06-04T09:43:02;99654.13;;;24.70;54.94
80410;BME280;69746;45.596;10.154;2023-06-04T09:45:32;99657.72;;;24.70;54.91
80410;BME280;69746;45.596;10.154;2023-06-04T09:47:59;99654.94;;;24.70;55.08
80410;BME280;69746;45.596;10.154;2023-06-04T09:50:27;99662.16;;;24.71;54.84
80410;BME280;69746;45.596;10.154;2023-06-04T09:52:56;99656.91;;;24.70;54.81
80410;BME280;69746;45.596;10.154;2023-06-04T09:55:23;99662.47;;;24.70;54.94
80410;BME280;69746;45.596;10.154;2023-06-04T09:57:50;99655.28;;;24.69;55.14
80410;BME280;69746;45.596;10.154;2023-06-04T10:00:17;99656.09;;;24.69;54.98
80410;BME280;69746;45.596;10.154;2023-06-04T10:02:47;99644.94;;;24.69;55.05
80410;BME280;69746;45.596;10.154;2023-06-04T10:05:15;99654.13;;;24.70;54.86
80410;BME280;69746;45.596;10.154;2023-06-04T10:07:45;99651.31;;;24.70;54.94
80410;BME280;69746;45.596;10.154;2023-06-04T10:10:18;99656.91;;;24.70;54.91
80410;BME280;69746;45.596;10.154;2023-06-04T10:12:49;99647.38;;;24.71;54.96
80410;BME280;69746;45.596;10.154;2023-06-04T10:15:17;99648.53;;;24.70;54.86
80410;BME280;69746;45.596;10.154;2023-06-04T10:17:43;99643.78;;;24.70;54.98
80410;BME280;69746;45.596;10.154;2023-06-04T10:20:10;99629.00;;;24.70;54.83
80410;BME280;69746;45.596;10.154;2023-06-04T10:22:38;99636.22;;;24.71;54.99
80410;BME280;69746;45.596;10.154;2023-06-04T10:25:04;99622.28;;;24.71;54.85
80410;BME280;69746;45.596;10.154;2023-06-04T10:27:31;99631.47;;;24.71;54.77
80410;BME280;69746;45.596;10.154;2023-06-04T10:29:57;99632.63;;;24.70;54.89
80410;BME280;69746;45.596;10.154;2023-06-04T10:32:28;99625.75;;;24.68;55.07
80410;BME280;69746;45.596;10.154;2023-06-04T10:34:54;99636.22;;;24.71;54.92
80410;BME280;69746;45.596;10.154;2023-06-04T10:37:24;99633.44;;;24.71;54.73
80410;BME280;69746;45.596;10.154;2023-06-04T10:39:55;99634.25;;;24.71;55.02
80410;BME280;69746;45.596;10.154;2023-06-04T10:42:22;99622.28;;;24.71;55.11
80410;BME280;69746;45.596;10.154;2023-06-04T10:44:52;99622.28;;;24.71;54.93
80410;BME280;69746;45.596;10.154;2023-06-04T10:47:26;99625.06;;;24.71;54.78
80410;BME280;69746;45.596;10.154;2023-06-04T10:49:53;99623.75;;;24.68;55.11
80410;BME280;69746;45.596;10.154;2023-06-04T10:52:19;99629.00;;;24.70;54.73
80410;BME280;69746;45.596;10.154;2023-06-04T10:54:46;99617.84;;;24.70;55.05
80410;BME280;69746;45.596;10.154;2023-06-04T10:57:18;99617.84;;;24.70;54.81
80410;BME280;69746;45.596;10.154;2023-06-04T10:59:57;99613.91;;;24.71;54.75
80410;BME280;69746;45.596;10.154;2023-06-04T11:02:24;99620.63;;;24.70;54.81
80410;BME280;69746;45.596;10.154;2023-06-04T11:05:05;99614.72;;;24.71;55.07
80410;BME280;69746;45.596;10.154;2023-06-04T11:07:43;99609.97;;;24.72;54.93
80410;BME280;69746;45.596;10.154;2023-06-04T11:10:11;99611.13;;;24.71;54.67
80410;BME280;69746;45.596;10.154;2023-06-04T11:12:48;99607.50;;;24.70;54.76
80410;BME280;69746;45.596;10.154;2023-06-04T11:15:16;99605.88;;;24.69;54.72
80410;BME280;69746;45.596;10.154;2023-06-04T11:17:50;99608.31;;;24.71;54.90
80410;BME280;69746;45.596;10.154;2023-06-04T11:20:17;99621.47;;;24.70;54.92
80410;BME280;69746;45.596;10.154;2023-06-04T11:22:52;99611.13;;;24.71;54.78
80410;BME280;69746;45.596;10.154;2023-06-04T11:25:18;99596.22;;;24.67;54.92
80410;BME280;69746;45.596;10.154;2023-06-04T11:27:45;99606.22;;;24.68;54.68
80410;BME280;69746;45.596;10.154;2023-06-04T11:30:11;99601.94;;;24.70;54.79
80410;BME280;69746;45.596;10.154;2023-06-04T11:32:37;99606.34;;;24.71;54.68
80410;BME280;69746;45.596;10.154;2023-06-04T11:35:04;99605.53;;;24.71;54.50
80410;BME280;69746;45.596;10.154;2023-06-04T11:37:34;99597.50;;;24.69;55.02
80410;BME280;69746;45.596;10.154;2023-06-04T11:40:00;99599.97;;;24.71;54.74
80410;BME280;69746;45.596;10.154;2023-06-04T11:42:27;99605.53;;;24.71;54.80
80410;BME280;69746;45.596;10.154;2023-06-04T11:44:56;99597.16;;;24.71;54.83
80410;BME280;69746;45.596;10.154;2023-06-04T11:47:22;99588.81;;;24.71;54.72
80410;BME280;69746;45.596;10.154;2023-06-04T11:49:56;99587.16;;;24.70;54.83
80410;BME280;69746;45.596;10.154;2023-06-04T11:52:22;99588.81;;;24.71;54.87
80410;BME280;69746;45.596;10.154;2023-06-04T11:54:48;99591.59;;;24.71;54.72
80410;BME280;69746;45.596;10.154;2023-06-04T11:57:15;99586.00;;;24.71;54.85
80410;BME280;69746;45.596;10.154;2023-06-04T11:59:42;99582.88;;;24.73;54.77
80410;BME280;69746;45.596;10.154;2023-06-04T12:02:07;99573.69;;;24.72;54.75
80410;BME280;69746;45.596;10.154;2023-06-04T12:04:33;99575.34;;;24.73;54.78
80410;BME280;69746;45.596;10.154;2023-06-04T12:07:01;99570.91;;;24.72;54.71
80410;BME280;69746;45.596;10.154;2023-06-04T12:09:31;99565.34;;;24.72;54.70
80410;BME280;69746;45.596;10.154;2023-06-04T12:11:59;99576.50;;;24.72;54.64
80410;BME280;69746;45.596;10.154;2023-06-04T12:14:27;99570.91;;;24.72;54.74
80410;BME280;69746;45.596;10.154;2023-06-04T12:17:08;99566.16;;;24.73;54.69
80410;BME280;69746;45.596;10.154;2023-06-04T12:19:46;99572.53;;;24.73;54.73
80410;BME280;69746;45.596;10.154;2023-06-04T12:22:13;99561.38;;;24.73;54.49
80410;BME280;69746;45.596;10.154;2023-06-04T12:24:50;99562.19;;;24.74;54.53
80410;BME280;69746;45.596;10.154;2023-06-04T12:27:19;99553.34;;;24.71;54.25
80410;BME280;69746;45.596;10.154;2023-06-04T12:30:02;99557.78;;;24.73;54.27
80410;BME280;69746;45.596;10.154;2023-06-04T12:32:29;99552.06;;;24.69;54.26
80410;BME280;69746;45.596;10.154;2023-06-04T12:34:56;99554.16;;;24.72;54.50
80410;BME280;69746;45.596;10.154;2023-06-04T12:37:23;99555.81;;;24.73;54.39
80410;BME280;69746;45.596;10.154;2023-06-04T12:39:52;99554.16;;;24.72;54.35
80410;BME280;69746;45.596;10.154;2023-06-04T12:42:19;99547.44;;;24.73;54.43
80410;BME280;69746;45.596;10.154;2023-06-04T12:44:45;99530.56;;;24.69;54.51
80410;BME280;69746;45.596;10.154;2023-06-04T12:47:12;99536.28;;;24.73;54.55
80410;BME280;69746;45.596;10.154;2023-06-04T12:49:41;99532.66;;;24.73;54.35
80410;BME280;69746;45.596;10.154;2023-06-04T12:52:08;99524.66;;;24.71;54.40
80410;BME280;69746;45.596;10.154;2023-06-04T12:54:34;99534.31;;;24.74;54.44
80410;BME280;69746;45.596;10.154;2023-06-04T12:57:00;99528.72;;;24.74;54.45
80410;BME280;69746;45.596;10.154;2023-06-04T12:59:27;99523.81;;;24.70;54.38
80410;BME280;69746;45.596;10.154;2023-06-04T13:01:53;99524.00;;;24.74;54.49
80410;BME280;69746;45.596;10.154;2023-06-04T13:04:23;99522.34;;;24.73;54.49
80410;BME280;69746;45.596;10.154;2023-06-04T13:06:51;99518.41;;;24.74;54.48
80410;BME280;69746;45.596;10.154;2023-06-04T13:09:24;99521.22;;;24.74;54.40
80410;BME280;69746;45.596;10.154;2023-06-04T13:11:50;99526.78;;;24.74;54.50
80410;BME280;69746;45.596;10.154;2023-06-04T13:14:16;99521.22;;;24.74;54.56
80410;BME280;69746;45.596;10.154;2023-06-04T13:16:42;99525.13;;;24.73;54.51
80410;BME280;69746;45.596;10.154;2023-06-04T13:19:08;99515.63;;;24.74;54.56
80410;BME280;69746;45.596;10.154;2023-06-04T13:21:34;99524.00;;;24.74;54.63
80410;BME280;69746;45.596;10.154;2023-06-04T13:24:00;99518.72;;;24.73;54.46
80410;BME280;69746;45.596;10.154;2023-06-04T13:26:26;99519.22;;;24.75;54.48
80410;BME280;69746;45.596;10.154;2023-06-04T13:28:52;99526.44;;;24.76;54.18
80410;BME280;69746;45.596;10.154;2023-06-04T13:31:18;99517.25;;;24.75;53.98
80410;BME280;69746;45.596;10.154;2023-06-04T13:33:44;99522.84;;;24.75;53.87
80410;BME280;69746;45.596;10.154;2023-06-04T13:36:09;99524.81;;;24.75;53.65
80410;BME280;69746;45.596;10.154;2023-06-04T13:38:35;99515.63;;;24.74;53.42
80410;BME280;69746;45.596;10.154;2023-06-04T13:41:01;99515.28;;;24.76;53.49
80410;BME280;69746;45.596;10.154;2023-06-04T13:43:27;99514.13;;;24.77;53.10
80410;BME280;69746;45.596;10.154;2023-06-04T13:45:52;99507.75;;;24.76;53.15
80410;BME280;69746;45.596;10.154;2023-06-04T13:48:18;99509.72;;;24.76;53.16
80410;BME280;69746;45.596;10.154;2023-06-04T13:50:44;99501.34;;;24.76;52.97
80410;BME280;69746;45.596;10.154;2023-06-04T13:53:10;99509.38;;;24.77;52.79
80410;BME280;69746;45.596;10.154;2023-06-04T13:55:38;99506.91;;;24.76;52.74
80410;BME280;69746;45.596;10.154;2023-06-04T13:58:04;99502.63;;;24.78;52.89
80410;BME280;69746;45.596;10.154;2023-06-04T14:00:30;99504.59;;;24.78;52.72
80410;BME280;69746;45.596;10.154;2023-06-04T14:02:57;99499.84;;;24.78;52.66
80410;BME280;69746;45.596;10.154;2023-06-04T14:05:24;99496.56;;;24.76;52.63
80410;BME280;69746;45.596;10.154;2023-06-04T14:07:53;99477.69;;;24.73;52.27
80410;BME280;69746;45.596;10.154;2023-06-04T14:10:19;99490.66;;;24.78;52.43
80410;BME280;69746;45.596;10.154;2023-06-04T14:12:45;99469.84;;;24.75;52.47
80410;BME280;69746;45.596;10.154;2023-06-04T14:15:11;99479.16;;;24.79;52.44
80410;BME280;69746;45.596;10.154;2023-06-04T14:17:40;99477.19;;;24.80;52.29
80410;BME280;69746;45.596;10.154;2023-06-04T14:20:07;99470.66;;;24.76;52.41
80410;BME280;69746;45.596;10.154;2023-06-04T14:22:34;99473.59;;;24.79;52.41
80410;BME280;69746;45.596;10.154;2023-06-04T14:25:04;99477.19;;;24.80;52.29
80410;BME280;69746;45.596;10.154;2023-06-04T14:27:31;99472.75;;;24.79;52.36
80410;BME280;69746;45.596;10.154;2023-06-04T14:29:57;99459.63;;;24.79;52.15
80410;BME280;69746;45.596;10.154;2023-06-04T14:32:23;99454.88;;;24.80;52.18
80410;BME280;69746;45.596;10.154;2023-06-04T14:34:50;99447.31;;;24.80;52.43
80410;BME280;69746;45.596;10.154;2023-06-04T14:37:16;99440.09;;;24.79;52.49
80410;BME280;69746;45.596;10.154;2023-06-04T14:39:41;99436.16;;;24.80;52.20
80410;BME280;69746;45.596;10.154;2023-06-04T14:42:07;99424.19;;;24.80;52.32
80410;BME280;69746;45.596;10.154;2023-06-04T14:44:33;99433.38;;;24.80;52.12
80410;BME280;69746;45.596;10.154;2023-06-04T14:46:59;99422.22;;;24.80;52.19
80410;BME280;69746;45.596;10.154;2023-06-04T14:49:25;99427.78;;;24.80;52.24
80410;BME280;69746;45.596;10.154;2023-06-04T14:51:56;99418.25;;;24.81;52.08
80410;BME280;69746;45.596;10.154;2023-06-04T14:54:22;99420.09;;;24.77;52.36
80410;BME280;69746;45.596;10.154;2023-06-04T14:56:48;99435.00;;;24.81;52.09
80410;BME280;69746;45.596;10.154;2023-06-04T14:59:13;99430.22;;;24.82;52.11
80410;BME280;69746;45.596;10.154;2023-06-04T15:01:39;99432.22;;;24.81;52.14
80410;BME280;69746;45.596;10.154;2023-06-04T15:04:06;99429.41;;;24.81;52.17
80410;BME280;69746;45.596;10.154;2023-06-04T15:06:32;99440.56;;;24.81;52.25
80410;BME280;69746;45.596;10.154;2023-06-04T15:08:58;99446.16;;;24.81;52.27
80410;BME280;69746;45.596;10.154;2023-06-04T15:11:24;99433.84;;;24.82;52.05
80410;BME280;69746;45.596;10.154;2023-06-04T15:13:52;99430.22;;;24.82;52.30
80410;BME280;69746;45.596;10.154;2023-06-04T15:16:18;99428.25;;;24.82;52.27
80410;BME280;69746;45.596;10.154;2023-06-04T15:18:44;99433.84;;;24.82;52.15
80410;BME280;69746;45.596;10.154;2023-06-04T15:21:10;99435.81;;;24.82;52.17
80410;BME280;69746;45.596;10.154;2023-06-04T15:23:36;99431.88;;;24.83;52.37
80410;BME280;69746;45.596;10.154;2023-06-04T15:26:02;99434.66;;;24.83;52.33
80410;BME280;69746;45.596;10.154;2023-06-04T15:28:28;99433.03;;;24.82;52.09
80410;BME280;69746;45.596;10.154;2023-06-04T15:30:53;99433.84;;;24.82;52.11
80410;BME280;69746;45.596;10.154;2023-06-04T15:33:19;99439.09;;;24.84;52.26
80410;BME280;69746;45.596;10.154;2023-06-04T15:35:45;99429.41;;;24.81;52.27
80410;BME280;69746;45.596;10.154;2023-06-04T15:38:11;99420.72;;;24.83;52.28
80410;BME280;69746;45.596;10.154;2023-06-04T15:40:36;99425.13;;;24.84;52.20
80410;BME280;69746;45.596;10.154;2023-06-04T15:43:02;99415.47;;;24.81;52.32
80410;BME280;69746;45.596;10.154;2023-06-04T15:45:28;99412.00;;;24.84;52.39
80410;BME280;69746;45.596;10.154;2023-06-04T15:47:53;99407.56;;;24.83;52.32
80410;BME280;69746;45.596;10.154;2023-06-04T15:50:19;99415.94;;;24.83;52.28
80410;BME280;69746;45.596;10.154;2023-06-04T15:52:45;99420.38;;;24.84;52.37
80410;BME280;69746;45.596;10.154;2023-06-04T15:55:11;99425.94;;;24.84;52.39
80410;BME280;69746;45.596;10.154;2023-06-04T15:57:37;99421.53;;;24.83;52.44
80410;BME280;69746;45.596;10.154;2023-06-04T16:00:04;99433.16;;;24.85;52.45
80410;BME280;69746;45.596;10.154;2023-06-04T16:02:29;99428.72;;;24.84;52.38
80410;BME280;69746;45.596;10.154;2023-06-04T16:04:56;99425.94;;;24.84;52.43
80410;BME280;69746;45.596;10.154;2023-06-04T16:07:22;99433.97;;;24.86;52.37
80410;BME280;69746;45.596;10.154;2023-06-04T16:09:48;99443.50;;;24.85;52.39
80410;BME280;69746;45.596;10.154;2023-06-04T16:12:14;99432.69;;;24.83;52.50
80410;BME280;69746;45.596;10.154;2023-06-04T16:14:40;99449.91;;;24.85;52.35
80410;BME280;69746;45.596;10.154;2023-06-04T16:17:06;99444.31;;;24.85;52.49
80410;BME280;69746;45.596;10.154;2023-06-04T16:19:32;99447.94;;;24.86;52.33
80410;BME280;69746;45.596;10.154;2023-06-04T16:21:58;99447.63;;;24.87;52.35
80410;BME280;69746;45.596;10.154;2023-06-04T16:24:24;99444.66;;;24.84;52.34
80410;BME280;69746;45.596;10.154;2023-06-04T16:26:50;99462.69;;;24.86;52.57
80410;BME280;69746;45.596;10.154;2023-06-04T16:29:16;99459.91;;;24.86;52.38
80410;BME280;69746;45.596;10.154;2023-06-04T16:31:42;99459.09;;;24.86;52.43
80410;BME280;69746;45.596;10.154;2023-06-04T16:34:09;99459.91;;;24.86;52.48
80410;BME280;69746;45.596;10.154;2023-06-04T16:36:35;99459.91;;;24.86;52.55
80410;BME280;69746;45.596;10.154;2023-06-04T16:39:05;99452.34;;;24.87;52.42
80410;BME280;69746;45.596;10.154;2023-06-04T16:41:31;99446.75;;;24.87;52.58
80410;BME280;69746;45.596;10.154;2023-06-04T16:43:59;99439.56;;;24.86;52.44
80410;BME280;69746;45.596;10.154;2023-06-04T16:46:25;99443.97;;;24.87;52.56
80410;BME280;69746;45.596;10.154;2023-06-04T16:48:51;99444.81;;;24.87;52.64
80410;BME280;69746;45.596;10.154;2023-06-04T16:51:17;99430.38;;;24.85;52.52
80410;BME280;69746;45.596;10.154;2023-06-04T16:53:43;99432.81;;;24.87;52.47